sensor_id;sensor_type;location;lat;lon;timestamp;P1;durP1;ratioP1;P2;durP2;ratioP2
76292;SDS011;67256;51.154;4.164;2023-08-12T00:00:08;8.98;;;4.10;;
76292;SDS011;67256;51.154;4.164;2023-08-12T00:02:39;13.27;;;4.38;;
76292;SDS011;67256;51.154;4.164;2023-08-12T00:05:08;8.55;;;3.85;;
76292;SDS011;67256;51.154;4.164;2023-08-12T00:07:37;8.00;;;4.05;;
76292;SDS011;67256;51.154;4.164;2023-08-12T00:10:06;7.93;;;3.63;;
76292;SDS011;67256;51.154;4.164;2023-08-12T00:12:32;14.27;;;5.35;;
76292;SDS011;67256;51.154;4.164;2023-08-12T00:14:59;9.23;;;5.50;;
76292;SDS011;67256;51.154;4.164;2023-08-12T00:17:25;11.60;;;5.40;;
76292;SDS011;67256;51.154;4.164;2023-08-12T00:19:51;11.65;;;4.65;;
76292;SDS011;67256;51.154;4.164;2023-08-12T00:22:16;10.43;;;4.88;;
76292;SDS011;67256;51.154;4.164;2023-08-12T00:24:42;10.07;;;4.90;;
76292;SDS011;67256;51.154;4.164;2023-08-12T00:27:08;9.27;;;4.68;;
76292;SDS011;67256;51.154;4.164;2023-08-12T00:29:34;9.63;;;4.68;;
76292;SDS011;67256;51.154;4.164;2023-08-12T00:32:00;11.35;;;4.90;;
76292;SDS011;67256;51.154;4.164;2023-08-12T00:34:26;11.40;;;4.70;;
76292;SDS011;67256;51.154;4.164;2023-08-12T00:36:52;10.73;;;5.35;;
76292;SDS011;67256;51.154;4.164;2023-08-12T00:39:18;10.57;;;4.95;;
76292;SDS011;67256;51.154;4.164;2023-08-12T00:41:44;9.48;;;4.85;;
76292;SDS011;67256;51.154;4.164;2023-08-12T00:44:10;10.25;;;5.30;;
76292;SDS011;67256;51.154;4.164;2023-08-12T00:46:36;10.70;;;5.15;;
76292;SDS011;67256;51.154;4.164;2023-08-12T00:49:05;11.75;;;4.88;;
76292;SDS011;67256;51.154;4.164;2023-08-12T00:51:31;9.13;;;5.28;;
76292;SDS011;67256;51.154;4.164;2023-08-12T00:54:00;10.48;;;5.05;;
76292;SDS011;67256;51.154;4.164;2023-08-12T00:56:29;11.23;;;5.05;;
76292;SDS011;67256;51.154;4.164;2023-08-12T00:58:56;12.52;;;5.28;;
76292;SDS011;67256;51.154;4.164;2023-08-12T01:01:22;10.18;;;5.30;;
76292;SDS011;67256;51.154;4.164;2023-08-12T01:03:48;12.23;;;5.32;;
76292;SDS011;67256;51.154;4.164;2023-08-12T01:06:14;9.60;;;4.78;;
76292;SDS011;67256;51.154;4.164;2023-08-12T01:08:40;12.02;;;5.30;;
76292;SDS011;67256;51.154;4.164;2023-08-12T01:11:12;10.10;;;5.63;;
76292;SDS011;67256;51.154;4.164;2023-08-12T01:14:00;18.80;;;6.22;;
76292;SDS011;67256;51.154;4.164;2023-08-12T01:16:36;12.40;;;5.78;;
76292;SDS011;67256;51.154;4.164;2023-08-12T01:19:08;9.20;;;5.28;;
76292;SDS011;67256;51.154;4.164;2023-08-12T01:21:43;8.30;;;4.93;;
76292;SDS011;67256;51.154;4.164;2023-08-12T01:24:11;8.15;;;4.82;;
76292;SDS011;67256;51.154;4.164;2023-08-12T01:26:36;9.30;;;4.82;;
76292;SDS011;67256;51.154;4.164;2023-08-12T01:29:02;10.30;;;4.75;;
76292;SDS011;67256;51.154;4.164;2023-08-12T01:31:32;10.75;;;5.03;;
76292;SDS011;67256;51.154;4.164;2023-08-12T01:34:08;8.90;;;5.13;;
76292;SDS011;67256;51.154;4.164;2023-08-12T01:36:55;14.57;;;5.28;;
76292;SDS011;67256;51.154;4.164;2023-08-12T01:39:23;11.63;;;5.65;;
76292;SDS011;67256;51.154;4.164;2023-08-12T01:41:51;11.95;;;5.18;;
76292;SDS011;67256;51.154;4.164;2023-08-12T01:44:19;11.18;;;5.47;;
76292;SDS011;67256;51.154;4.164;2023-08-12T01:46:45;13.15;;;5.88;;
76292;SDS011;67256;51.154;4.164;2023-08-12T01:49:10;11.05;;;4.80;;
76292;SDS011;67256;51.154;4.164;2023-08-12T01:51:36;12.30;;;5.25;;
76292;SDS011;67256;51.154;4.164;2023-08-12T01:54:02;10.55;;;4.47;;
76292;SDS011;67256;51.154;4.164;2023-08-12T01:56:27;14.48;;;5.82;;
76292;SDS011;67256;51.154;4.164;2023-08-12T01:58:53;10.07;;;4.53;;
76292;SDS011;67256;51.154;4.164;2023-08-12T02:01:19;9.35;;;5.03;;
76292;SDS011;67256;51.154;4.164;2023-08-12T02:03:45;11.40;;;5.10;;
76292;SDS011;67256;51.154;4.164;2023-08-12T02:06:11;8.25;;;4.63;;
76292;SDS011;67256;51.154;4.164;2023-08-12T02:08:36;11.88;;;5.13;;
76292;SDS011;67256;51.154;4.164;2023-08-12T02:11:02;8.20;;;5.40;;
76292;SDS011;67256;51.154;4.164;2023-08-12T02:13:28;9.60;;;4.45;;
76292;SDS011;67256;51.154;4.164;2023-08-12T02:15:54;10.75;;;4.38;;
76292;SDS011;67256;51.154;4.164;2023-08-12T02:18:20;8.73;;;4.75;;
76292;SDS011;67256;51.154;4.164;2023-08-12T02:20:46;11.88;;;4.53;;
76292;SDS011;67256;51.154;4.164;2023-08-12T02:23:13;12.25;;;5.22;;
76292;SDS011;67256;51.154;4.164;2023-08-12T02:25:39;14.77;;;4.85;;
76292;SDS011;67256;51.154;4.164;2023-08-12T02:28:04;9.93;;;4.60;;
76292;SDS011;67256;51.154;4.164;2023-08-12T02:30:30;15.75;;;5.07;;
76292;SDS011;67256;51.154;4.164;2023-08-12T02:32:56;10.63;;;4.35;;
76292;SDS011;67256;51.154;4.164;2023-08-12T02:35:22;12.07;;;5.28;;
76292;SDS011;67256;51.154;4.164;2023-08-12T02:37:48;10.98;;;5.00;;
76292;SDS011;67256;51.154;4.164;2023-08-12T02:40:14;9.15;;;5.05;;
76292;SDS011;67256;51.154;4.164;2023-08-12T02:42:40;12.02;;;5.32;;
76292;SDS011;67256;51.154;4.164;2023-08-12T02:45:06;11.15;;;5.03;;
76292;SDS011;67256;51.154;4.164;2023-08-12T02:47:32;9.63;;;5.07;;
76292;SDS011;67256;51.154;4.164;2023-08-12T02:49:57;16.90;;;6.53;;
76292;SDS011;67256;51.154;4.164;2023-08-12T02:52:23;8.40;;;5.15;;
76292;SDS011;67256;51.154;4.164;2023-08-12T02:54:49;21.65;;;5.43;;
76292;SDS011;67256;51.154;4.164;2023-08-12T02:57:15;12.32;;;5.82;;
76292;SDS011;67256;51.154;4.164;2023-08-12T02:59:41;11.15;;;5.70;;
76292;SDS011;67256;51.154;4.164;2023-08-12T03:02:07;10.07;;;5.55;;
76292;SDS011;67256;51.154;4.164;2023-08-12T03:04:32;11.90;;;5.50;;
76292;SDS011;67256;51.154;4.164;2023-08-12T03:06:58;12.35;;;6.50;;
76292;SDS011;67256;51.154;4.164;2023-08-12T03:09:24;14.45;;;6.38;;
76292;SDS011;67256;51.154;4.164;2023-08-12T03:11:49;11.45;;;6.30;;
76292;SDS011;67256;51.154;4.164;2023-08-12T03:14:15;14.48;;;5.68;;
76292;SDS011;67256;51.154;4.164;2023-08-12T03:16:41;8.70;;;5.82;;
76292;SDS011;67256;51.154;4.164;2023-08-12T03:19:06;14.50;;;6.35;;
76292;SDS011;67256;51.154;4.164;2023-08-12T03:21:33;11.07;;;6.03;;
76292;SDS011;67256;51.154;4.164;2023-08-12T03:23:59;15.55;;;6.80;;
76292;SDS011;67256;51.154;4.164;2023-08-12T03:26:25;12.95;;;6.57;;
76292;SDS011;67256;51.154;4.164;2023-08-12T03:28:51;10.18;;;6.55;;
76292;SDS011;67256;51.154;4.164;2023-08-12T03:31:16;13.85;;;6.75;;
76292;SDS011;67256;51.154;4.164;2023-08-12T03:33:42;11.70;;;6.07;;
76292;SDS011;67256;51.154;4.164;2023-08-12T03:36:08;14.55;;;6.03;;
76292;SDS011;67256;51.154;4.164;2023-08-12T03:38:34;11.25;;;6.55;;
76292;SDS011;67256;51.154;4.164;2023-08-12T03:41:01;12.23;;;6.30;;
76292;SDS011;67256;51.154;4.164;2023-08-12T03:43:27;9.85;;;5.85;;
76292;SDS011;67256;51.154;4.164;2023-08-12T03:45:53;9.90;;;5.78;;
76292;SDS011;67256;51.154;4.164;2023-08-12T03:48:19;8.80;;;6.13;;
76292;SDS011;67256;51.154;4.164;2023-08-12T03:50:44;10.30;;;5.30;;
76292;SDS011;67256;51.154;4.164;2023-08-12T03:53:12;8.00;;;5.10;;
76292;SDS011;67256;51.154;4.164;2023-08-12T03:55:37;12.10;;;5.93;;
76292;SDS011;67256;51.154;4.164;2023-08-12T03:58:03;10.15;;;5.95;;
76292;SDS011;67256;51.154;4.164;2023-08-12T04:00:29;9.40;;;5.75;;
76292;SDS011;67256;51.154;4.164;2023-08-12T04:02:56;9.77;;;4.95;;
76292;SDS011;67256;51.154;4.164;2023-08-12T04:05:21;11.25;;;5.70;;
76292;SDS011;67256;51.154;4.164;2023-08-12T04:07:47;9.48;;;5.20;;
76292;SDS011;67256;51.154;4.164;2023-08-12T04:10:13;8.05;;;4.63;;
76292;SDS011;67256;51.154;4.164;2023-08-12T04:12:39;11.35;;;4.85;;
76292;SDS011;67256;51.154;4.164;2023-08-12T04:15:07;7.88;;;4.95;;
76292;SDS011;67256;51.154;4.164;2023-08-12T04:17:33;7.97;;;4.43;;
76292;SDS011;67256;51.154;4.164;2023-08-12T04:19:59;8.05;;;4.68;;
76292;SDS011;67256;51.154;4.164;2023-08-12T04:22:24;8.80;;;4.13;;
76292;SDS011;67256;51.154;4.164;2023-08-12T04:24:51;8.35;;;4.28;;
76292;SDS011;67256;51.154;4.164;2023-08-12T04:27:16;11.45;;;4.57;;
76292;SDS011;67256;51.154;4.164;2023-08-12T04:29:42;9.38;;;4.97;;
76292;SDS011;67256;51.154;4.164;2023-08-12T04:32:08;7.25;;;4.50;;
76292;SDS011;67256;51.154;4.164;2023-08-12T04:34:34;10.18;;;4.70;;
76292;SDS011;67256;51.154;4.164;2023-08-12T04:36:59;7.63;;;4.65;;
76292;SDS011;67256;51.154;4.164;2023-08-12T04:39:25;8.68;;;4.65;;
76292;SDS011;67256;51.154;4.164;2023-08-12T04:41:51;7.35;;;4.75;;
76292;SDS011;67256;51.154;4.164;2023-08-12T04:44:17;8.35;;;4.43;;
76292;SDS011;67256;51.154;4.164;2023-08-12T04:46:43;10.15;;;5.10;;
76292;SDS011;67256;51.154;4.164;2023-08-12T04:49:08;7.50;;;4.15;;
76292;SDS011;67256;51.154;4.164;2023-08-12T04:51:34;9.88;;;4.43;;
76292;SDS011;67256;51.154;4.164;2023-08-12T04:54:00;8.45;;;4.60;;
76292;SDS011;67256;51.154;4.164;2023-08-12T04:56:26;8.85;;;4.57;;
76292;SDS011;67256;51.154;4.164;2023-08-12T04:58:54;8.02;;;4.03;;
76292;SDS011;67256;51.154;4.164;2023-08-12T05:01:20;8.88;;;4.28;;
76292;SDS011;67256;51.154;4.164;2023-08-12T05:03:46;6.63;;;4.38;;
76292;SDS011;67256;51.154;4.164;2023-08-12T05:06:12;8.10;;;3.70;;
76292;SDS011;67256;51.154;4.164;2023-08-12T05:08:37;4.97;;;3.55;;
76292;SDS011;67256;51.154;4.164;2023-08-12T05:11:03;5.93;;;3.42;;
76292;SDS011;67256;51.154;4.164;2023-08-12T05:13:29;4.80;;;3.35;;
76292;SDS011;67256;51.154;4.164;2023-08-12T05:15:55;6.22;;;2.72;;
76292;SDS011;67256;51.154;4.164;2023-08-12T05:18:21;5.80;;;3.47;;
76292;SDS011;67256;51.154;4.164;2023-08-12T05:20:52;4.50;;;2.40;;
76292;SDS011;67256;51.154;4.164;2023-08-12T05:23:20;2.97;;;2.13;;
76292;SDS011;67256;51.154;4.164;2023-08-12T05:25:46;2.80;;;2.00;;
76292;SDS011;67256;51.154;4.164;2023-08-12T05:28:11;3.50;;;2.50;;
76292;SDS011;67256;51.154;4.164;2023-08-12T05:30:37;2.58;;;1.55;;
76292;SDS011;67256;51.154;4.164;2023-08-12T05:33:03;4.32;;;1.90;;
76292;SDS011;67256;51.154;4.164;2023-08-12T05:35:33;3.78;;;2.00;;
76292;SDS011;67256;51.154;4.164;2023-08-12T05:37:59;2.55;;;1.85;;
76292;SDS011;67256;51.154;4.164;2023-08-12T05:40:24;2.58;;;1.58;;
76292;SDS011;67256;51.154;4.164;2023-08-12T05:42:50;4.38;;;1.63;;
76292;SDS011;67256;51.154;4.164;2023-08-12T05:45:16;1.80;;;1.30;;
76292;SDS011;67256;51.154;4.164;2023-08-12T05:47:42;1.98;;;1.48;;
76292;SDS011;67256;51.154;4.164;2023-08-12T05:50:07;4.70;;;1.27;;
76292;SDS011;67256;51.154;4.164;2023-08-12T05:52:33;2.45;;;1.45;;
76292;SDS011;67256;51.154;4.164;2023-08-12T05:54:59;1.65;;;1.10;;
76292;SDS011;67256;51.154;4.164;2023-08-12T05:57:25;2.75;;;1.33;;
76292;SDS011;67256;51.154;4.164;2023-08-12T05:59:51;2.80;;;1.17;;
76292;SDS011;67256;51.154;4.164;2023-08-12T06:02:17;3.97;;;1.10;;
76292;SDS011;67256;51.154;4.164;2023-08-12T06:04:43;1.63;;;1.00;;
76292;SDS011;67256;51.154;4.164;2023-08-12T06:07:09;1.48;;;0.90;;
76292;SDS011;67256;51.154;4.164;2023-08-12T06:09:35;2.10;;;1.10;;
76292;SDS011;67256;51.154;4.164;2023-08-12T06:12:00;1.45;;;0.93;;
76292;SDS011;67256;51.154;4.164;2023-08-12T06:14:26;2.05;;;1.00;;
76292;SDS011;67256;51.154;4.164;2023-08-12T06:16:54;1.05;;;0.70;;
76292;SDS011;67256;51.154;4.164;2023-08-12T06:19:19;1.23;;;0.80;;
76292;SDS011;67256;51.154;4.164;2023-08-12T06:21:45;1.27;;;0.70;;
76292;SDS011;67256;51.154;4.164;2023-08-12T06:24:11;1.40;;;0.70;;
76292;SDS011;67256;51.154;4.164;2023-08-12T06:26:36;1.63;;;0.65;;
76292;SDS011;67256;51.154;4.164;2023-08-12T06:29:02;1.67;;;0.57;;
76292;SDS011;67256;51.154;4.164;2023-08-12T06:31:28;2.72;;;0.60;;
76292;SDS011;67256;51.154;4.164;2023-08-12T06:33:53;1.40;;;0.80;;
76292;SDS011;67256;51.154;4.164;2023-08-12T06:36:19;1.58;;;0.80;;
76292;SDS011;67256;51.154;4.164;2023-08-12T06:38:45;7.72;;;1.35;;
76292;SDS011;67256;51.154;4.164;2023-08-12T06:41:11;0.88;;;0.70;;
76292;SDS011;67256;51.154;4.164;2023-08-12T06:43:37;2.95;;;1.70;;
76292;SDS011;67256;51.154;4.164;2023-08-12T06:46:02;4.75;;;2.03;;
76292;SDS011;67256;51.154;4.164;2023-08-12T06:48:28;2.95;;;1.92;;
76292;SDS011;67256;51.154;4.164;2023-08-12T06:50:54;4.88;;;2.20;;
76292;SDS011;67256;51.154;4.164;2023-08-12T06:53:20;5.90;;;2.47;;
76292;SDS011;67256;51.154;4.164;2023-08-12T06:55:46;8.23;;;2.60;;
76292;SDS011;67256;51.154;4.164;2023-08-12T06:58:13;4.93;;;2.40;;
76292;SDS011;67256;51.154;4.164;2023-08-12T07:00:39;4.07;;;2.70;;
76292;SDS011;67256;51.154;4.164;2023-08-12T07:03:05;7.00;;;2.50;;
76292;SDS011;67256;51.154;4.164;2023-08-12T07:05:31;7.47;;;2.80;;
76292;SDS011;67256;51.154;4.164;2023-08-12T07:07:56;3.80;;;2.47;;
76292;SDS011;67256;51.154;4.164;2023-08-12T07:10:22;8.25;;;2.17;;
76292;SDS011;67256;51.154;4.164;2023-08-12T07:12:48;4.53;;;1.92;;
76292;SDS011;67256;51.154;4.164;2023-08-12T07:15:13;5.07;;;1.98;;
76292;SDS011;67256;51.154;4.164;2023-08-12T07:17:39;5.15;;;1.45;;
76292;SDS011;67256;51.154;4.164;2023-08-12T07:20:06;5.85;;;1.50;;
76292;SDS011;67256;51.154;4.164;2023-08-12T07:22:32;8.40;;;2.33;;
76292;SDS011;67256;51.154;4.164;2023-08-12T07:24:58;4.13;;;1.13;;
76292;SDS011;67256;51.154;4.164;2023-08-12T07:27:25;8.50;;;1.92;;
76292;SDS011;67256;51.154;4.164;2023-08-12T07:29:52;5.45;;;2.10;;
76292;SDS011;67256;51.154;4.164;2023-08-12T07:32:18;4.32;;;1.58;;
76292;SDS011;67256;51.154;4.164;2023-08-12T07:34:44;3.45;;;1.30;;
76292;SDS011;67256;51.154;4.164;2023-08-12T07:37:10;5.50;;;1.40;;
76292;SDS011;67256;51.154;4.164;2023-08-12T07:39:36;4.55;;;1.50;;
76292;SDS011;67256;51.154;4.164;2023-08-12T07:42:02;5.43;;;1.30;;
76292;SDS011;67256;51.154;4.164;2023-08-12T07:44:28;8.23;;;1.40;;
76292;SDS011;67256;51.154;4.164;2023-08-12T07:46:54;5.88;;;1.60;;
76292;SDS011;67256;51.154;4.164;2023-08-12T07:49:19;5.28;;;2.03;;
76292;SDS011;67256;51.154;4.164;2023-08-12T07:51:45;8.63;;;2.00;;
76292;SDS011;67256;51.154;4.164;2023-08-12T07:54:11;5.97;;;2.20;;
76292;SDS011;67256;51.154;4.164;2023-08-12T07:56:37;6.45;;;2.20;;
76292;SDS011;67256;51.154;4.164;2023-08-12T07:59:03;5.05;;;2.03;;
76292;SDS011;67256;51.154;4.164;2023-08-12T08:01:28;10.77;;;2.40;;
76292;SDS011;67256;51.154;4.164;2023-08-12T08:03:56;6.10;;;2.03;;
76292;SDS011;67256;51.154;4.164;2023-08-12T08:06:26;5.38;;;2.60;;
76292;SDS011;67256;51.154;4.164;2023-08-12T08:08:56;6.80;;;3.70;;
76292;SDS011;67256;51.154;4.164;2023-08-12T08:11:29;9.35;;;4.53;;
76292;SDS011;67256;51.154;4.164;2023-08-12T08:14:00;15.05;;;6.38;;
76292;SDS011;67256;51.154;4.164;2023-08-12T08:16:31;18.65;;;10.60;;
76292;SDS011;67256;51.154;4.164;2023-08-12T08:19:01;17.77;;;10.02;;
76292;SDS011;67256;51.154;4.164;2023-08-12T08:21:31;19.45;;;12.55;;
76292;SDS011;67256;51.154;4.164;2023-08-12T08:24:01;22.63;;;12.73;;
76292;SDS011;67256;51.154;4.164;2023-08-12T08:26:31;17.27;;;12.70;;
76292;SDS011;67256;51.154;4.164;2023-08-12T08:29:01;22.13;;;11.95;;
76292;SDS011;67256;51.154;4.164;2023-08-12T08:31:32;20.17;;;10.45;;
76292;SDS011;67256;51.154;4.164;2023-08-12T08:34:02;21.13;;;7.03;;
76292;SDS011;67256;51.154;4.164;2023-08-12T08:36:32;12.65;;;4.82;;
76292;SDS011;67256;51.154;4.164;2023-08-12T08:39:02;8.25;;;4.10;;
76292;SDS011;67256;51.154;4.164;2023-08-12T08:41:33;15.68;;;4.88;;
76292;SDS011;67256;51.154;4.164;2023-08-12T08:44:08;9.02;;;3.65;;
76292;SDS011;67256;51.154;4.164;2023-08-12T08:46:39;8.38;;;3.38;;
76292;SDS011;67256;51.154;4.164;2023-08-12T08:49:11;6.82;;;3.72;;
76292;SDS011;67256;51.154;4.164;2023-08-12T08:51:42;7.13;;;2.50;;
76292;SDS011;67256;51.154;4.164;2023-08-12T08:54:10;6.60;;;3.03;;
76292;SDS011;67256;51.154;4.164;2023-08-12T08:56:38;7.00;;;2.20;;
76292;SDS011;67256;51.154;4.164;2023-08-12T08:59:04;6.85;;;2.20;;
76292;SDS011;67256;51.154;4.164;2023-08-12T09:01:30;6.45;;;2.30;;
76292;SDS011;67256;51.154;4.164;2023-08-12T09:03:57;9.43;;;2.45;;
76292;SDS011;67256;51.154;4.164;2023-08-12T09:06:24;7.70;;;2.55;;
76292;SDS011;67256;51.154;4.164;2023-08-12T09:08:53;6.85;;;2.17;;
76292;SDS011;67256;51.154;4.164;2023-08-12T09:11:20;9.85;;;2.55;;
76292;SDS011;67256;51.154;4.164;2023-08-12T09:13:46;7.00;;;2.17;;
76292;SDS011;67256;51.154;4.164;2023-08-12T09:16:13;7.80;;;2.60;;
76292;SDS011;67256;51.154;4.164;2023-08-12T09:18:41;7.60;;;2.50;;
76292;SDS011;67256;51.154;4.164;2023-08-12T09:21:08;8.43;;;2.38;;
76292;SDS011;67256;51.154;4.164;2023-08-12T09:23:37;7.72;;;2.63;;
76292;SDS011;67256;51.154;4.164;2023-08-12T09:26:14;6.00;;;1.95;;
76292;SDS011;67256;51.154;4.164;2023-08-12T09:28:44;12.05;;;2.10;;
76292;SDS011;67256;51.154;4.164;2023-08-12T09:33:49;7.65;;;2.40;;
76292;SDS011;67256;51.154;4.164;2023-08-12T09:36:15;10.90;;;2.20;;
76292;SDS011;67256;51.154;4.164;2023-08-12T09:38:42;7.43;;;2.47;;
76292;SDS011;67256;51.154;4.164;2023-08-12T09:41:08;6.78;;;2.40;;
76292;SDS011;67256;51.154;4.164;2023-08-12T09:43:34;10.30;;;2.97;;
76292;SDS011;67256;51.154;4.164;2023-08-12T09:45:59;9.95;;;2.47;;
76292;SDS011;67256;51.154;4.164;2023-08-12T09:48:25;7.20;;;2.33;;
76292;SDS011;67256;51.154;4.164;2023-08-12T09:50:52;8.68;;;2.60;;
76292;SDS011;67256;51.154;4.164;2023-08-12T09:53:19;4.38;;;1.85;;
76292;SDS011;67256;51.154;4.164;2023-08-12T09:55:47;7.05;;;2.05;;
76292;SDS011;67256;51.154;4.164;2023-08-12T09:58:17;13.88;;;2.70;;
76292;SDS011;67256;51.154;4.164;2023-08-12T10:00:44;6.38;;;1.90;;
76292;SDS011;67256;51.154;4.164;2023-08-12T10:03:10;6.68;;;2.70;;
76292;SDS011;67256;51.154;4.164;2023-08-12T10:05:39;8.18;;;2.75;;
76292;SDS011;67256;51.154;4.164;2023-08-12T10:08:05;5.30;;;2.40;;
76292;SDS011;67256;51.154;4.164;2023-08-12T10:10:34;9.27;;;2.75;;
76292;SDS011;67256;51.154;4.164;2023-08-12T10:13:01;6.22;;;2.92;;
76292;SDS011;67256;51.154;4.164;2023-08-12T10:15:27;10.18;;;3.03;;
76292;SDS011;67256;51.154;4.164;2023-08-12T10:17:53;6.78;;;2.10;;
76292;SDS011;67256;51.154;4.164;2023-08-12T10:20:21;7.72;;;2.60;;
76292;SDS011;67256;51.154;4.164;2023-08-12T10:22:50;9.15;;;2.72;;
76292;SDS011;67256;51.154;4.164;2023-08-12T10:25:17;7.80;;;2.28;;
76292;SDS011;67256;51.154;4.164;2023-08-12T10:27:46;9.80;;;2.50;;
76292;SDS011;67256;51.154;4.164;2023-08-12T10:30:13;5.90;;;2.10;;
76292;SDS011;67256;51.154;4.164;2023-08-12T10:32:39;11.02;;;3.28;;
76292;SDS011;67256;51.154;4.164;2023-08-12T10:35:05;9.10;;;2.35;;
76292;SDS011;67256;51.154;4.164;2023-08-12T10:37:32;7.43;;;2.38;;
76292;SDS011;67256;51.154;4.164;2023-08-12T10:39:59;6.32;;;1.95;;
76292;SDS011;67256;51.154;4.164;2023-08-12T10:45:11;6.82;;;2.03;;
76292;SDS011;67256;51.154;4.164;2023-08-12T10:47:43;5.78;;;2.08;;
76292;SDS011;67256;51.154;4.164;2023-08-12T10:50:20;5.43;;;2.08;;
76292;SDS011;67256;51.154;4.164;2023-08-12T10:52:51;10.48;;;2.35;;
76292;SDS011;67256;51.154;4.164;2023-08-12T10:55:18;10.57;;;2.47;;
76292;SDS011;67256;51.154;4.164;2023-08-12T10:57:44;8.18;;;2.00;;
76292;SDS011;67256;51.154;4.164;2023-08-12T11:00:11;10.32;;;2.58;;
76292;SDS011;67256;51.154;4.164;2023-08-12T11:02:39;6.13;;;1.75;;
76292;SDS011;67256;51.154;4.164;2023-08-12T11:05:09;5.88;;;2.17;;
76292;SDS011;67256;51.154;4.164;2023-08-12T11:07:44;6.95;;;2.25;;
76292;SDS011;67256;51.154;4.164;2023-08-12T11:10:26;7.63;;;2.10;;
76292;SDS011;67256;51.154;4.164;2023-08-12T11:12:55;8.50;;;2.47;;
76292;SDS011;67256;51.154;4.164;2023-08-12T11:15:29;7.13;;;1.90;;
76292;SDS011;67256;51.154;4.164;2023-08-12T11:17:55;9.35;;;2.72;;
76292;SDS011;67256;51.154;4.164;2023-08-12T11:20:21;5.53;;;2.03;;
76292;SDS011;67256;51.154;4.164;2023-08-12T11:22:46;8.00;;;2.13;;
76292;SDS011;67256;51.154;4.164;2023-08-12T11:25:13;12.80;;;2.35;;
76292;SDS011;67256;51.154;4.164;2023-08-12T11:27:43;8.70;;;1.85;;
76292;SDS011;67256;51.154;4.164;2023-08-12T11:30:11;5.57;;;1.40;;
76292;SDS011;67256;51.154;4.164;2023-08-12T11:32:40;6.75;;;1.80;;
76292;SDS011;67256;51.154;4.164;2023-08-12T11:35:09;9.25;;;2.35;;
76292;SDS011;67256;51.154;4.164;2023-08-12T11:37:40;6.47;;;1.63;;
76292;SDS011;67256;51.154;4.164;2023-08-12T11:40:08;9.20;;;1.80;;
76292;SDS011;67256;51.154;4.164;2023-08-12T11:42:35;6.15;;;1.35;;
76292;SDS011;67256;51.154;4.164;2023-08-12T11:45:04;4.82;;;2.13;;
76292;SDS011;67256;51.154;4.164;2023-08-12T11:47:32;8.63;;;2.03;;
76292;SDS011;67256;51.154;4.164;2023-08-12T11:49:58;5.97;;;2.20;;
76292;SDS011;67256;51.154;4.164;2023-08-12T11:52:26;5.47;;;1.92;;
76292;SDS011;67256;51.154;4.164;2023-08-12T11:54:52;5.82;;;1.80;;
76292;SDS011;67256;51.154;4.164;2023-08-12T11:57:18;11.90;;;1.90;;
76292;SDS011;67256;51.154;4.164;2023-08-12T11:59:44;6.80;;;1.67;;
76292;SDS011;67256;51.154;4.164;2023-08-12T12:02:10;6.07;;;1.70;;
76292;SDS011;67256;51.154;4.164;2023-08-12T12:04:37;5.72;;;1.85;;
76292;SDS011;67256;51.154;4.164;2023-08-12T12:07:03;7.55;;;1.80;;
76292;SDS011;67256;51.154;4.164;2023-08-12T12:09:32;12.33;;;2.03;;
76292;SDS011;67256;51.154;4.164;2023-08-12T12:11:59;8.10;;;2.10;;
76292;SDS011;67256;51.154;4.164;2023-08-12T12:14:25;6.97;;;1.80;;
76292;SDS011;67256;51.154;4.164;2023-08-12T12:16:51;10.57;;;2.20;;
76292;SDS011;67256;51.154;4.164;2023-08-12T12:21:47;5.47;;;1.73;;
76292;SDS011;67256;51.154;4.164;2023-08-12T12:24:14;6.10;;;2.03;;
76292;SDS011;67256;51.154;4.164;2023-08-12T12:26:40;7.57;;;1.92;;
76292;SDS011;67256;51.154;4.164;2023-08-12T12:29:06;6.40;;;1.73;;
76292;SDS011;67256;51.154;4.164;2023-08-12T12:31:32;6.57;;;2.05;;
76292;SDS011;67256;51.154;4.164;2023-08-12T12:33:59;7.38;;;1.58;;
76292;SDS011;67256;51.154;4.164;2023-08-12T12:36:32;5.90;;;1.67;;
76292;SDS011;67256;51.154;4.164;2023-08-12T12:39:02;6.38;;;2.17;;
76292;SDS011;67256;51.154;4.164;2023-08-12T12:41:28;8.10;;;2.47;;
76292;SDS011;67256;51.154;4.164;2023-08-12T12:43:54;6.70;;;1.88;;
76292;SDS011;67256;51.154;4.164;2023-08-12T12:46:20;9.43;;;1.95;;
76292;SDS011;67256;51.154;4.164;2023-08-12T12:48:46;8.82;;;1.73;;
76292;SDS011;67256;51.154;4.164;2023-08-12T12:51:13;7.18;;;1.52;;
76292;SDS011;67256;51.154;4.164;2023-08-12T12:53:40;7.10;;;2.13;;
76292;SDS011;67256;51.154;4.164;2023-08-12T12:56:06;5.38;;;1.38;;
76292;SDS011;67256;51.154;4.164;2023-08-12T12:58:35;6.28;;;1.38;;
76292;SDS011;67256;51.154;4.164;2023-08-12T13:01:02;5.22;;;1.60;;
76292;SDS011;67256;51.154;4.164;2023-08-12T13:03:32;6.38;;;1.48;;
76292;SDS011;67256;51.154;4.164;2023-08-12T13:08:24;6.72;;;1.50;;
76292;SDS011;67256;51.154;4.164;2023-08-12T13:10:50;7.88;;;1.55;;
76292;SDS011;67256;51.154;4.164;2023-08-12T13:13:17;4.15;;;1.23;;
76292;SDS011;67256;51.154;4.164;2023-08-12T13:15:43;10.93;;;1.83;;
76292;SDS011;67256;51.154;4.164;2023-08-12T13:18:10;8.15;;;1.67;;
76292;SDS011;67256;51.154;4.164;2023-08-12T13:20:36;6.32;;;1.52;;
76292;SDS011;67256;51.154;4.164;2023-08-12T13:23:02;6.78;;;2.08;;
76292;SDS011;67256;51.154;4.164;2023-08-12T13:25:29;5.03;;;1.30;;
76292;SDS011;67256;51.154;4.164;2023-08-12T13:27:57;6.53;;;1.70;;
76292;SDS011;67256;51.154;4.164;2023-08-12T13:30:24;4.82;;;1.80;;
76292;SDS011;67256;51.154;4.164;2023-08-12T13:32:49;5.57;;;1.70;;
76292;SDS011;67256;51.154;4.164;2023-08-12T13:35:16;5.35;;;2.00;;
76292;SDS011;67256;51.154;4.164;2023-08-12T13:37:42;5.72;;;1.77;;
76292;SDS011;67256;51.154;4.164;2023-08-12T13:40:08;5.75;;;1.83;;
76292;SDS011;67256;51.154;4.164;2023-08-12T13:42:34;6.40;;;1.65;;
76292;SDS011;67256;51.154;4.164;2023-08-12T13:45:00;6.40;;;2.10;;
76292;SDS011;67256;51.154;4.164;2023-08-12T13:47:26;7.70;;;2.13;;
76292;SDS011;67256;51.154;4.164;2023-08-12T13:49:52;7.28;;;2.28;;
76292;SDS011;67256;51.154;4.164;2023-08-12T13:52:18;9.70;;;1.80;;
76292;SDS011;67256;51.154;4.164;2023-08-12T13:54:43;7.13;;;1.92;;
76292;SDS011;67256;51.154;4.164;2023-08-12T13:57:09;6.25;;;2.13;;
76292;SDS011;67256;51.154;4.164;2023-08-12T13:59:35;5.03;;;1.50;;
76292;SDS011;67256;51.154;4.164;2023-08-12T14:02:00;5.47;;;1.50;;
76292;SDS011;67256;51.154;4.164;2023-08-12T14:04:26;6.20;;;1.88;;
76292;SDS011;67256;51.154;4.164;2023-08-12T14:06:51;12.27;;;1.98;;
76292;SDS011;67256;51.154;4.164;2023-08-12T14:09:17;8.35;;;2.08;;
76292;SDS011;67256;51.154;4.164;2023-08-12T14:11:45;5.72;;;1.58;;
76292;SDS011;67256;51.154;4.164;2023-08-12T14:14:11;5.97;;;1.90;;
76292;SDS011;67256;51.154;4.164;2023-08-12T14:16:36;9.68;;;1.92;;
76292;SDS011;67256;51.154;4.164;2023-08-12T14:19:02;7.95;;;1.77;;
76292;SDS011;67256;51.154;4.164;2023-08-12T14:21:28;8.43;;;2.00;;
76292;SDS011;67256;51.154;4.164;2023-08-12T14:23:53;9.30;;;2.15;;
76292;SDS011;67256;51.154;4.164;2023-08-12T14:26:19;7.25;;;1.52;;
76292;SDS011;67256;51.154;4.164;2023-08-12T14:28:45;7.55;;;1.90;;
76292;SDS011;67256;51.154;4.164;2023-08-12T14:31:10;6.70;;;2.47;;
76292;SDS011;67256;51.154;4.164;2023-08-12T14:33:36;9.05;;;2.17;;
76292;SDS011;67256;51.154;4.164;2023-08-12T14:36:02;11.07;;;1.98;;
76292;SDS011;67256;51.154;4.164;2023-08-12T14:38:28;6.95;;;1.60;;
76292;SDS011;67256;51.154;4.164;2023-08-12T14:40:54;13.70;;;2.30;;
76292;SDS011;67256;51.154;4.164;2023-08-12T14:43:20;11.02;;;2.25;;
76292;SDS011;67256;51.154;4.164;2023-08-12T14:45:45;10.07;;;2.20;;
76292;SDS011;67256;51.154;4.164;2023-08-12T14:48:12;6.15;;;1.65;;
76292;SDS011;67256;51.154;4.164;2023-08-12T14:50:40;8.40;;;2.10;;